Time;durP1;ratioP1;P1;durP2;ratioP2;P2;SDS_P1;SDS_P2;PMS_P1;PMS_P2;Temp;Humidity;BMP_temperature;BMP_pressure;BME280_temperature;BME280_humidity;BME280_pressure;Samples;Min_cycle;Max_cycle;Signal;HPM_P1;HPM_P2
2022/06/13 00:02:12;;;;;;;2.73;2.53;;;;;;;13.51;83.39;97747.69;6229911;28;20233;-83
2022/06/13 00:05:15;;;;;;;2.70;2.50;;;;;;;13.48;83.25;97734.72;6205834;28;20723;-83
2022/06/13 00:08:18;;;;;;;4.33;2.40;;;;;;;13.45;83.51;97737.66;6210300;28;20232;-83
2022/06/13 00:11:23;;;;;;;3.20;2.00;;;;;;;13.46;83.06;97732.22;6210923;28;20262;-83
2022/06/13 00:14:25;;;;;;;3.80;2.43;;;;;;;13.44;83.37;97731.53;6188046;28;20239;-83
2022/06/13 00:17:27;;;;;;;2.20;2.00;;;;;;;13.41;83.52;97730.97;6217476;28;20228;-83
2022/06/13 00:20:29;;;;;;;5.07;2.47;;;;;;;13.37;83.23;97724.28;6197683;28;20241;-84
2022/06/13 00:23:36;;;;;;;2.90;2.23;;;;;;;13.35;83.26;97716.47;6207511;28;20223;-83
2022/06/13 00:26:38;;;;;;;3.23;2.50;;;;;;;13.34;83.17;97719.25;6211727;28;20301;-83
2022/06/13 00:29:42;;;;;;;4.07;2.40;;;;;;;13.31;83.23;97717.69;6212994;28;20234;-83
2022/06/13 00:32:44;;;;;;;3.40;2.33;;;;;;;13.26;83.03;97704.88;6205202;28;20258;-83
2022/06/13 00:35:46;;;;;;;2.17;1.97;;;;;;;13.21;83.44;97708.91;6184471;28;20315;-83
2022/06/13 00:38:48;;;;;;;2.63;2.30;;;;;;;13.20;83.69;97712.53;6221812;28;20322;-83
2022/06/13 00:41:50;;;;;;;3.87;2.50;;;;;;;13.17;83.61;97716.31;6223992;28;20251;-85
2022/06/13 00:45:16;;;;;;;7.23;2.57;;;;;;;13.15;83.75;97710.31;6216805;28;20330;-85
2022/06/13 00:48:26;;;;;;;2.40;2.20;;;;;;;13.11;82.91;97714.16;6192170;28;20310;-84
2022/06/13 00:51:31;;;;;;;3.30;2.20;;;;;;;13.03;83.43;97702.59;6219846;28;20227;-84
2022/06/13 00:54:39;;;;;;;3.07;2.30;;;;;;;12.93;83.80;97707.88;6242795;28;20315;-84
2022/06/13 00:57:41;;;;;;;3.07;2.30;;;;;;;12.86;83.91;97694.34;6235589;28;20318;-83
2022/06/13 01:05:02;;;;;;;2.70;2.50;;;;;;;12.75;84.39;97677.75;6257280;28;20616;-83
2022/06/13 01:08:07;;;;;;;4.70;2.80;;;;;;;12.73;84.75;97674.38;6241592;28;20317;-83
2022/06/13 01:11:16;;;;;;;2.80;2.30;;;;;;;12.67;84.86;97669.66;6240477;28;20243;-83
2022/06/13 01:14:51;;;;;;;3.53;2.57;;;;;;;12.67;85.02;97667.00;6235329;28;20234;-83
2022/06/13 01:18:21;;;;;;;3.80;2.50;;;;;;;12.66;84.97;97666.16;6232847;28;20856;-83
2022/06/13 01:21:47;;;;;;;2.90;2.60;;;;;;;12.61;85.38;97664.88;6216731;28;20300;-83
2022/06/13 01:25:27;;;;;;;3.23;2.40;;;;;;;12.61;85.22;97662.22;6224765;28;20243;-84
2022/06/13 01:28:42;;;;;;;2.93;2.70;;;;;;;12.54;85.79;97657.50;6233699;28;20309;-83
2022/06/13 01:31:56;;;;;;;2.93;2.63;;;;;;;12.50;85.78;97655.25;6217240;28;20269;-83
2022/06/13 01:35:25;;;;;;;4.27;2.50;;;;;;;12.45;85.78;97655.66;6233274;28;20321;-83
2022/06/13 01:38:59;;;;;;;3.97;2.73;;;;;;;12.44;86.21;97643.41;6215527;28;20234;-83
2022/06/13 01:42:13;;;;;;;4.30;2.23;;;;;;;12.48;85.96;97647.44;6199184;28;20292;-83
2022/06/13 01:45:27;;;;;;;5.63;2.90;;;;;;;12.49;86.23;97643.81;6215154;28;20232;-83
2022/06/13 01:48:46;;;;;;;3.10;2.83;;;;;;;12.49;85.95;97641.16;6254958;28;20235;-83
2022/06/13 01:52:18;;;;;;;3.20;2.90;;;;;;;12.47;86.23;97647.59;6238692;28;20596;-83
2022/06/13 01:55:53;;;;;;;3.17;2.70;;;;;;;12.42;86.17;97641.84;6232369;28;20231;-83
2022/06/13 01:59:07;;;;;;;3.43;2.50;;;;;;;12.39;86.11;97648.25;6253686;28;20694;-83
2022/06/13 02:02:17;;;;;;;2.60;2.40;;;;;;;12.41;86.05;97650.75;6232950;28;20269;-83
2022/06/13 02:05:35;;;;;;;3.13;2.83;;;;;;;12.38;86.53;97649.22;6233261;28;20715;-83
2022/06/13 02:08:47;;;;;;;4.40;2.57;;;;;;;12.37;86.15;97639.63;6257970;28;20242;-83
2022/06/13 02:11:52;;;;;;;3.47;2.63;;;;;;;12.35;86.05;97640.72;6240166;28;20242;-83
2022/06/13 02:15:02;;;;;;;4.23;2.87;;;;;;;12.34;86.33;97639.03;6239590;28;20284;-83
2022/06/13 02:18:24;;;;;;;2.80;2.60;;;;;;;12.32;86.21;97635.69;6228906;28;20695;-83
2022/06/13 02:21:39;;;;;;;5.00;2.77;;;;;;;12.27;86.49;97635.28;6239487;28;20226;-83
2022/06/13 02:24:47;;;;;;;3.30;2.53;;;;;;;12.25;86.48;97643.34;6239487;28;20744;-85
2022/06/13 02:27:57;;;;;;;2.53;2.20;;;;;;;12.25;86.57;97639.84;6238914;28;20223;-83
2022/06/13 02:31:09;;;;;;;3.30;2.53;;;;;;;12.30;86.70;97632.34;6238379;28;20227;-83
2022/06/13 02:34:27;;;;;;;3.10;2.80;;;;;;;12.28;86.82;97632.47;6238597;28;20230;-83
2022/06/13 02:37:29;;;;;;;2.47;2.20;;;;;;;12.26;86.51;97638.88;6238747;28;20287;-83
2022/06/13 02:40:38;;;;;;;3.37;2.60;;;;;;;12.25;86.70;97638.06;6237787;28;20263;-83
2022/06/13 02:43:55;;;;;;;3.60;2.53;;;;;;;12.21;86.38;97631.34;6238499;28;20236;-83
2022/06/13 02:47:04;;;;;;;6.50;2.60;;;;;;;12.17;86.52;97635.25;6230637;28;20234;-83
2022/06/13 02:50:15;;;;;;;2.87;2.60;;;;;;;12.14;86.33;97635.50;6213778;28;20229;-83
2022/06/13 02:53:20;;;;;;;3.20;2.90;;;;;;;12.13;86.46;97639.94;6228783;28;20255;-83
2022/06/13 03:00:40;;;;;;;2.80;2.50;;;;;;;12.14;86.55;97617.81;6246584;28;20235;-84
2022/06/13 03:03:56;;;;;;;2.87;2.10;;;;;;;12.12;86.42;97608.34;6242702;28;20254;-83
2022/06/13 03:07:34;;;;;;;3.30;2.33;;;;;;;12.09;86.65;97604.16;6214503;28;20322;-83
2022/06/13 03:10:48;;;;;;;2.80;2.30;;;;;;;12.05;86.89;97610.69;6202215;28;20320;-83
2022/06/13 03:14:13;;;;;;;4.10;2.80;;;;;;;12.06;86.89;97617.66;6217777;28;20236;-83
2022/06/13 03:17:57;;;;;;;3.37;3.13;;;;;;;12.09;86.77;97612.06;6218450;28;20231;-83
2022/06/13 03:21:07;;;;;;;2.60;2.30;;;;;;;12.13;86.91;97607.38;6205354;28;20723;-83
2022/06/13 03:24:37;;;;;;;2.30;2.10;;;;;;;12.16;86.67;97604.47;6221268;28;20385;-83
2022/06/13 03:28:08;;;;;;;2.50;2.30;;;;;;;12.19;85.94;97609.47;6231393;28;20224;-83
2022/06/13 03:31:27;;;;;;;2.47;2.27;;;;;;;12.21;86.65;97607.53;6229603;28;20231;-83
2022/06/13 03:34:37;;;;;;;2.80;2.60;;;;;;;12.23;86.53;97605.59;6230478;28;20242;-83
2022/06/13 03:37:44;;;;;;;3.10;2.90;;;;;;;12.26;86.67;97600.03;6212857;28;20377;-83
2022/06/13 03:40:52;;;;;;;4.47;3.10;;;;;;;12.28;86.07;97605.19;6211006;28;20242;-83
2022/06/13 03:44:08;;;;;;;3.50;2.63;;;;;;;12.32;86.54;97599.47;6212917;28;20280;-83
2022/06/13 03:47:22;;;;;;;3.17;2.87;;;;;;;12.35;86.30;97599.22;6212756;28;20238;-83
2022/06/13 03:50:38;;;;;;;3.73;2.43;;;;;;;12.43;86.58;97601.19;6228555;28;20311;-83
2022/06/13 03:53:52;;;;;;;4.33;2.60;;;;;;;12.53;86.27;97594.94;6210563;28;20318;-83
2022/06/13 03:57:03;;;;;;;2.50;2.30;;;;;;;12.62;86.07;97601.19;6188507;28;20735;-83
2022/06/13 04:00:08;;;;;;;2.60;2.40;;;;;;;12.68;86.32;97599.81;6211547;28;20235;-83
2022/06/13 04:03:10;;;;;;;4.10;2.73;;;;;;;12.68;86.12;97592.69;6229517;28;20673;-83
2022/06/13 04:06:37;;;;;;;2.53;2.33;;;;;;;12.68;86.05;97581.25;6188489;28;20761;-84
2022/06/13 04:09:48;;;;;;;2.83;2.57;;;;;;;12.74;86.19;97592.16;6200743;28;20328;-83
2022/06/13 04:13:18;;;;;;;3.03;2.37;;;;;;;12.85;86.04;97585.91;6213551;28;20240;-83
2022/06/13 04:16:33;;;;;;;2.90;2.37;;;;;;;12.93;85.94;97594.81;6222527;28;20245;-84
2022/06/13 04:19:56;;;;;;;2.57;2.37;;;;;;;13.00;86.05;97592.44;6248995;28;20244;-84
2022/06/13 04:23:16;;;;;;;2.60;2.37;;;;;;;13.16;85.44;97587.44;6236196;28;20711;-84
2022/06/13 04:26:29;;;;;;;4.87;3.33;;;;;;;13.35;84.67;97593.69;6232150;28;20263;-83
2022/06/13 04:29:57;;;;;;;3.10;2.60;;;;;;;13.56;84.39;97591.69;6235432;28;20247;-84
2022/06/13 04:33:14;;;;;;;2.60;2.40;;;;;;;13.78;83.71;97585.16;6207145;28;20266;-85
2022/06/13 04:36:18;;;;;;;2.87;2.67;;;;;;;13.80;83.56;97591.16;6217620;28;20240;-84
2022/06/13 04:39:27;;;;;;;2.50;2.30;;;;;;;13.92;83.54;97596.16;6212193;28;20738;-83
2022/06/13 04:42:33;;;;;;;2.80;2.60;;;;;;;14.14;83.38;97594.94;6196173;28;20595;-84
2022/06/13 04:45:49;;;;;;;2.70;2.50;;;;;;;14.29;82.20;97584.66;6229428;28;20220;-83
2022/06/13 04:48:53;;;;;;;3.30;3.10;;;;;;;14.35;82.30;97582.25;6195520;28;20697;-83
2022/06/13 04:52:00;;;;;;;2.73;2.53;;;;;;;14.47;82.90;97587.41;6211935;28;20374;-84
2022/06/13 04:55:10;;;;;;;2.70;2.27;;;;;;;14.66;82.29;97592.56;6204672;28;20225;-83
2022/06/13 04:58:32;;;;;;;2.87;2.63;;;;;;;14.71;82.11;97591.13;6226030;28;20265;-83
2022/06/13 05:01:50;;;;;;;2.70;2.50;;;;;;;14.77;81.86;97605.63;6228382;28;20232;-83
2022/06/13 05:04:52;;;;;;;3.37;3.07;;;;;;;14.78;82.70;97613.44;6211456;28;20235;-83
2022/06/13 05:07:55;;;;;;;4.73;2.50;;;;;;;14.76;83.25;97638.50;6229751;28;20232;-84
2022/06/13 05:11:28;;;;;;;2.50;2.30;;;;;;;14.69;83.59;97672.78;6228625;28;20228;-84
2022/06/13 05:14:36;;;;;;;4.60;2.67;;;;;;;14.60;85.30;97723.31;6187147;28;20832;-83
2022/06/13 05:17:54;;;;;;;3.33;3.07;;;;;;;14.62;87.00;97739.94;6217949;28;20703;-83
2022/06/13 05:21:08;;;;;;;3.13;2.50;;;;;;;15.24;80.25;97739.16;6203468;28;20239;-84
2022/06/13 05:24:45;;;;;;;2.63;2.33;;;;;;;16.03;71.78;97752.53;6204866;28;20236;-84
2022/06/13 05:27:47;;;;;;;3.00;2.03;;;;;;;16.52;68.91;97744.81;6205897;28;20234;-84
2022/06/13 05:30:53;;;;;;;3.87;2.13;;;;;;;16.74;68.04;97746.97;6215432;28;20303;-83
2022/06/13 05:33:57;;;;;;;2.10;1.90;;;;;;;16.99;65.99;97763.88;6235842;28;20314;-84
2022/06/13 05:37:01;;;;;;;3.30;2.20;;;;;;;17.10;66.98;97763.59;6215956;28;20228;-84
2022/06/13 05:40:03;;;;;;;1.83;1.73;;;;;;;17.20;67.15;97766.94;6215870;28;20694;-83
2022/06/13 05:43:05;;;;;;;2.40;1.70;;;;;;;17.30;65.82;97759.66;6200153;28;20289;-84
2022/06/13 05:46:13;;;;;;;1.97;1.73;;;;;;;17.48;65.03;97750.66;6233167;28;20231;-84
2022/06/13 05:49:17;;;;;;;4.73;2.10;;;;;;;17.65;64.48;97755.06;6231400;28;20232;-84
2022/06/13 05:52:19;;;;;;;2.00;1.80;;;;;;;17.65;65.65;97744.41;6214812;28;20354;-84
2022/06/13 05:55:21;;;;;;;2.27;2.07;;;;;;;17.51;68.48;97747.69;6190850;28;20232;-84
2022/06/13 05:58:39;;;;;;;2.80;2.00;;;;;;;17.23;70.74;97752.47;6218538;28;20228;-84
2022/06/13 06:01:50;;;;;;;4.47;2.30;;;;;;;17.16;70.65;97748.78;6214241;28;20228;-84
2022/06/13 06:04:52;;;;;;;2.27;2.07;;;;;;;17.12;69.96;97764.28;6227998;28;20224;-84
2022/06/13 06:07:59;;;;;;;2.20;1.80;;;;;;;17.17;69.38;97753.94;6230239;28;20256;-84
2022/06/13 06:11:02;;;;;;;3.57;2.10;;;;;;;17.28;69.05;97758.13;6231359;28;20228;-84
2022/06/13 06:14:04;;;;;;;2.03;1.90;;;;;;;17.34;68.69;97753.00;6214807;28;20328;-84
2022/06/13 06:17:07;;;;;;;3.93;2.13;;;;;;;17.37;70.14;97761.69;6212987;28;20225;-83
2022/06/13 06:20:17;;;;;;;2.47;2.10;;;;;;;17.33;70.47;97779.84;6214584;28;20269;-84
2022/06/13 06:23:19;;;;;;;2.40;2.20;;;;;;;17.32;69.49;97773.66;6230642;28;20232;-84
2022/06/13 06:26:23;;;;;;;2.67;2.47;;;;;;;17.41;68.51;97771.84;6214793;28;20232;-84
2022/06/13 06:29:25;;;;;;;3.17;2.00;;;;;;;17.45;68.52;97762.53;6235585;28;20259;-84
2022/06/13 06:32:27;;;;;;;3.00;2.40;;;;;;;17.46;68.17;97769.53;6231827;28;20614;-83
2022/06/13 06:35:30;;;;;;;2.50;2.10;;;;;;;17.54;67.60;97768.72;6252537;28;20317;-84
2022/06/13 06:38:39;;;;;;;2.87;2.30;;;;;;;17.57;67.20;97765.69;6197674;28;20805;-83
2022/06/13 06:41:42;;;;;;;2.10;1.93;;;;;;;17.70;67.18;97758.91;6230368;28;20240;-84
2022/06/13 06:44:45;;;;;;;2.33;2.13;;;;;;;17.78;66.35;97760.75;6213598;28;20778;-84
2022/06/13 06:47:47;;;;;;;2.50;2.30;;;;;;;17.87;66.51;97762.41;6222433;28;20234;-84
2022/06/13 06:50:50;;;;;;;3.67;2.20;;;;;;;17.97;67.37;97754.22;6201515;28;20375;-83
2022/06/13 07:00:37;;;;;;;2.40;2.20;;;;;;;18.34;68.37;97740.34;6245487;28;20278;-84
2022/06/13 07:03:40;;;;;;;2.20;2.10;;;;;;;18.48;68.26;97746.81;6200180;28;20357;-84
2022/06/13 07:06:43;;;;;;;3.80;2.50;;;;;;;18.59;66.25;97741.97;6230267;28;20599;-84
2022/06/13 07:09:46;;;;;;;3.00;2.50;;;;;;;18.68;66.68;97727.56;6229678;28;20223;-85
2022/06/13 07:12:48;;;;;;;2.07;1.93;;;;;;;18.69;66.39;97717.69;6230748;28;20307;-84
2022/06/13 07:15:50;;;;;;;2.97;2.40;;;;;;;18.72;65.51;97709.34;6197493;28;20645;-87
2022/06/13 07:18:52;;;;;;;2.53;1.90;;;;;;;18.76;64.77;97713.34;6229360;28;20237;-84
2022/06/13 07:21:55;;;;;;;2.00;1.80;;;;;;;18.79;65.74;97702.28;6229101;28;20231;-84
2022/06/13 07:24:57;;;;;;;2.67;2.23;;;;;;;18.86;65.96;97705.94;6229260;28;20231;-84
2022/06/13 07:27:59;;;;;;;2.67;2.10;;;;;;;18.97;66.86;97699.34;6227992;28;20223;-84
2022/06/13 07:31:01;;;;;;;2.97;2.20;;;;;;;19.09;66.76;97695.28;6233088;28;20754;-84
2022/06/13 07:34:04;;;;;;;2.20;2.00;;;;;;;19.22;66.50;97692.88;6232199;28;20246;-87
2022/06/13 07:37:10;;;;;;;2.33;1.97;;;;;;;19.28;67.04;97697.50;6207729;28;20696;-84
2022/06/13 07:40:12;;;;;;;2.47;2.27;;;;;;;19.33;66.69;97703.16;6226501;28;20279;-84
2022/06/13 07:43:34;;;;;;;2.07;1.93;;;;;;;19.47;65.97;97704.22;6212743;28;20246;-84
2022/06/13 07:46:36;;;;;;;2.40;2.10;;;;;;;19.65;65.03;97702.13;6212049;28;20239;-84
2022/06/13 07:49:38;;;;;;;2.53;1.90;;;;;;;19.82;64.92;97697.47;6228494;28;20262;-84
2022/06/13 07:52:40;;;;;;;3.47;1.80;;;;;;;19.92;63.35;97676.59;6228963;28;20314;-84
2022/06/13 07:55:42;;;;;;;2.30;2.10;;;;;;;19.96;62.41;97663.69;6196320;28;20357;-84
2022/06/13 07:58:48;;;;;;;2.77;2.10;;;;;;;20.15;60.99;97649.75;6211960;28;20243;-86
2022/06/13 09:01:59;;;;;;;1.90;1.80;;;;;;;26.53;47.12;97657.69;3530708;28;22444;-85
2022/06/13 09:05:10;;;;;;;2.22;1.75;;;;;;;26.55;48.02;97668.28;6224265;28;20245;-86
2022/06/13 09:08:46;;;;;;;4.03;1.70;;;;;;;25.56;48.03;97667.19;6219660;28;20778;-86
2022/06/13 09:11:59;;;;;;;1.88;1.52;;;;;;;25.98;48.31;97656.72;6162163;28;20743;-86
2022/06/13 09:15:33;;;;;;;2.22;1.70;;;;;;;26.50;45.58;97660.00;6231650;28;20251;-86
2022/06/13 09:18:48;;;;;;;1.70;1.60;;;;;;;26.31;44.64;97665.41;6265876;28;20249;-85
2022/06/13 09:21:56;;;;;;;2.78;1.60;;;;;;;25.51;45.61;97664.31;6232068;28;20247;-86
2022/06/13 09:25:05;;;;;;;1.65;1.50;;;;;;;25.74;46.25;97661.09;6232119;28;20310;-86
2022/06/13 09:28:22;;;;;;;2.03;1.33;;;;;;;25.66;46.50;97654.06;6214552;28;20239;-86
2022/06/13 09:31:33;;;;;;;2.63;1.52;;;;;;;25.82;46.60;97659.97;6248762;28;20303;-86
2022/06/13 09:35:01;;;;;;;1.55;1.15;;;;;;;25.97;45.84;97661.28;6231775;28;20421;-85
2022/06/13 09:38:26;;;;;;;1.33;1.23;;;;;;;25.86;45.32;97656.59;6215653;28;20239;-86
2022/06/13 09:42:00;;;;;;;1.55;1.40;;;;;;;26.13;44.74;97654.50;6231555;28;20838;-86
2022/06/13 09:45:37;;;;;;;1.10;1.10;;;;;;;26.41;45.49;97641.34;6215015;28;20306;-86
2022/06/13 09:49:00;;;;;;;1.27;1.10;;;;;;;26.68;44.83;97622.09;6243412;28;20247;-86
2022/06/13 09:52:21;;;;;;;1.00;1.00;;;;;;;27.11;44.79;97627.41;6232396;28;20340;-86
2022/06/13 09:55:38;;;;;;;4.63;1.40;;;;;;;27.68;43.21;97630.53;6233312;28;20323;-86
2022/06/13 09:59:04;;;;;;;1.23;1.08;;;;;;;27.94;40.36;97632.00;6232289;28;20358;-86
2022/06/13 10:02:16;;;;;;;1.08;0.90;;;;;;;28.18;41.05;97614.69;6218045;28;20220;-89
2022/06/13 10:05:35;;;;;;;1.58;0.95;;;;;;;28.20;41.79;97632.41;6214934;28;20934;-86
2022/06/13 10:08:50;;;;;;;2.15;0.85;;;;;;;28.56;39.83;97655.72;6190767;28;20228;-90
2022/06/13 10:12:31;;;;;;;3.60;0.93;;;;;;;28.48;41.42;97634.38;6191320;28;20232;-87
2022/06/13 10:15:41;;;;;;;1.52;0.90;;;;;;;28.92;40.57;97641.06;6180132;28;20321;-86
2022/06/13 10:19:17;;;;;;;1.10;0.90;;;;;;;29.07;37.52;97648.66;6212060;28;20231;-87
2022/06/13 10:22:23;;;;;;;0.90;0.90;;;;;;;29.46;38.74;97632.56;6206263;28;20867;-87
2022/06/13 10:25:34;;;;;;;0.80;0.80;;;;;;;29.30;38.40;97629.56;6190623;28;20905;-88
2022/06/13 10:28:57;;;;;;;1.70;0.60;;;;;;;29.77;37.96;97625.75;6181000;28;20237;-88
2022/06/13 10:32:19;;;;;;;1.25;0.90;;;;;;;30.41;36.54;97627.88;6190229;28;20450;-88
2022/06/13 10:35:28;;;;;;;1.00;0.90;;;;;;;30.96;36.10;97626.16;6207416;28;20345;-86
2022/06/13 10:38:50;;;;;;;0.70;0.70;;;;;;;31.53;35.85;97621.09;6209342;28;20224;-89
2022/06/13 10:41:57;;;;;;;1.40;0.75;;;;;;;31.83;35.67;97634.22;6213609;28;20613;-87
2022/06/13 10:45:02;;;;;;;1.00;0.73;;;;;;;31.80;35.36;97630.09;6213569;28;20311;-88
2022/06/13 10:48:13;;;;;;;0.88;0.88;;;;;;;31.80;34.14;97635.56;6205283;28;20612;-87
2022/06/13 10:51:15;;;;;;;0.70;0.70;;;;;;;31.79;34.66;97633.06;6206171;28;20215;-88
2022/06/13 10:54:29;;;;;;;0.77;0.70;;;;;;;31.40;34.40;97622.31;6230944;28;20274;-86
2022/06/13 10:57:35;;;;;;;0.75;0.75;;;;;;;30.95;34.28;97632.69;6230505;28;20311;-87
2022/06/13 11:00:37;;;;;;;1.42;0.75;;;;;;;30.31;36.10;97630.47;6226534;28;20792;-86
2022/06/13 11:04:00;;;;;;;0.80;0.80;;;;;;;30.48;37.25;97626.88;6198539;28;20228;-85
2022/06/13 11:07:11;;;;;;;0.80;0.80;;;;;;;30.63;36.07;97618.94;6189458;28;20255;-85
2022/06/13 11:10:26;;;;;;;0.80;0.80;;;;;;;30.41;36.46;97619.72;6212918;28;20307;-86
2022/06/13 11:13:36;;;;;;;4.53;0.90;;;;;;;30.20;37.56;97634.13;6212704;28;20232;-87
2022/06/13 11:23:21;;;;;;;1.15;0.70;;;;;;;31.11;36.47;97591.75;6212469;28;20262;-87
2022/06/13 11:29:47;;;;;;;2.38;0.85;;;;;;;32.18;33.64;97603.63;6219042;28;20227;-87
2022/06/13 11:32:59;;;;;;;1.35;0.90;;;;;;;32.71;34.18;97597.13;6229258;28;20742;-88
2022/06/13 11:36:27;;;;;;;0.77;0.75;;;;;;;32.90;31.94;97597.47;6212570;28;20239;-89
2022/06/13 11:39:32;;;;;;;2.47;0.93;;;;;;;31.88;33.04;97594.13;6213937;28;20228;-87
2022/06/13 11:42:35;;;;;;;1.15;0.70;;;;;;;31.00;36.27;97602.78;6228620;28;20365;-87
2022/06/13 11:45:38;;;;;;;2.17;0.77;;;;;;;31.00;36.43;97597.31;6212494;28;20275;-87
2022/06/13 11:48:49;;;;;;;0.70;0.70;;;;;;;31.37;35.52;97592.00;6211563;28;20763;-86
2022/06/13 11:52:12;;;;;;;2.85;0.82;;;;;;;31.69;35.69;97586.59;6172113;28;20243;-86
2022/06/13 11:55:19;;;;;;;0.65;0.65;;;;;;;32.36;33.97;97575.06;6184489;28;20239;-87
2022/06/13 11:58:28;;;;;;;1.00;0.90;;;;;;;31.45;33.57;97575.16;6225592;28;20338;-86
2022/06/13 12:01:55;;;;;;;0.80;0.80;;;;;;;30.68;35.87;97578.97;6187459;28;20236;-86
2022/06/13 12:04:57;;;;;;;2.25;0.82;;;;;;;31.54;35.09;97560.78;6211524;28;20305;-85
2022/06/13 12:08:15;;;;;;;2.05;0.88;;;;;;;31.90;34.03;97544.72;6204134;28;20379;-86
2022/06/13 12:11:17;;;;;;;0.70;0.70;;;;;;;32.12;34.83;97563.72;6204344;28;20235;-87
2022/06/13 12:14:20;;;;;;;3.50;1.05;;;;;;;32.02;33.79;97552.72;6207694;28;20232;-85
2022/06/13 12:17:38;;;;;;;0.60;0.60;;;;;;;31.99;34.23;97550.50;6228483;28;20309;-85
2022/06/13 12:20:56;;;;;;;1.65;0.80;;;;;;;32.63;32.69;97551.16;6228822;28;20243;-86
2022/06/13 12:24:12;;;;;;;1.17;0.70;;;;;;;32.62;32.70;97560.44;6228156;28;20310;-86
2022/06/13 12:27:51;;;;;;;1.20;0.80;;;;;;;32.58;32.94;97556.59;6191675;28;20327;-86
2022/06/13 12:31:28;;;;;;;3.33;0.93;;;;;;;32.19;33.96;97556.94;6228155;28;20696;-86
2022/06/13 12:34:51;;;;;;;0.80;0.80;;;;;;;31.84;34.66;97546.56;6218077;28;20236;-86
2022/06/13 12:37:53;;;;;;;2.88;1.10;;;;;;;31.47;33.66;97556.63;6244321;28;20224;-85
2022/06/13 12:41:10;;;;;;;2.13;0.90;;;;;;;31.85;34.95;97571.97;6227629;28;20627;-85
2022/06/13 12:44:46;;;;;;;1.88;0.70;;;;;;;32.51;33.17;97562.31;6227952;28;20703;-85
2022/06/13 12:48:36;;;;;;;1.10;1.00;;;;;;;31.27;35.05;97559.16;6227522;28;20231;-85
2022/06/13 12:51:57;;;;;;;0.75;0.70;;;;;;;31.30;35.16;97558.66;6219720;28;20228;-85
2022/06/13 12:55:20;;;;;;;1.15;1.05;;;;;;;31.23;36.54;97561.63;6227132;28;20250;-86
2022/06/13 12:58:53;;;;;;;3.05;0.82;;;;;;;32.09;34.06;97550.56;6228477;28;20278;-86
2022/06/13 13:02:17;;;;;;;0.90;0.73;;;;;;;32.05;34.31;97552.16;6227419;28;20230;-86
2022/06/13 13:05:26;;;;;;;1.77;0.95;;;;;;;32.75;33.70;97545.47;6204866;28;20609;-86
2022/06/13 13:08:34;;;;;;;0.70;0.70;;;;;;;32.34;33.90;97548.03;6189069;28;21320;-86
2022/06/13 13:12:13;;;;;;;1.08;1.00;;;;;;;33.00;35.04;97556.50;6186813;28;20263;-85
2022/06/13 13:15:27;;;;;;;1.40;0.90;;;;;;;33.34;33.44;97554.13;6210800;28;20220;-85
2022/06/13 13:20:43;;;;;;;1.83;0.80;;;;;;;32.39;34.42;97534.38;6210534;28;20525;-85
2022/06/13 13:34:20;;;;;;;1.20;1.10;;;;;;;31.13;35.11;97537.78;6079731;29;20340;-86
2022/06/13 13:37:46;;;;;;;2.05;1.20;;;;;;;31.47;33.43;97543.81;6082243;29;20234;-86
2022/06/13 13:40:58;;;;;;;1.10;1.00;;;;;;;31.85;33.20;97529.13;6065702;29;20761;-86
2022/06/13 13:44:32;;;;;;;1.27;0.80;;;;;;;32.67;32.11;97526.81;6081229;29;20228;-87
2022/06/13 13:47:37;;;;;;;0.80;0.80;;;;;;;33.03;31.45;97544.19;6067242;29;20712;-88
2022/06/13 13:50:47;;;;;;;2.05;0.90;;;;;;;32.56;32.91;97550.56;6085956;29;20621;-85
2022/06/13 13:53:54;;;;;;;1.42;1.13;;;;;;;31.57;34.02;97547.69;6071320;29;20289;-85
2022/06/13 13:57:23;;;;;;;2.03;0.98;;;;;;;30.83;35.53;97548.34;6086743;29;20981;-86
2022/06/13 14:00:34;;;;;;;1.23;0.80;;;;;;;29.38;36.52;97535.91;6063407;29;20236;-86
2022/06/13 14:03:55;;;;;;;0.85;0.85;;;;;;;28.62;38.74;97543.44;6085104;29;20235;-86
2022/06/13 14:07:29;;;;;;;0.75;0.75;;;;;;;28.25;39.23;97536.66;6140029;28;20230;-88
2022/06/13 14:10:34;;;;;;;2.42;1.10;;;;;;;27.73;40.81;97533.03;6193301;28;20220;-87
2022/06/13 14:13:39;;;;;;;1.45;1.02;;;;;;;27.91;39.57;97519.34;6214261;28;20263;-85
2022/06/13 14:16:47;;;;;;;0.93;0.93;;;;;;;27.90;40.15;97518.53;6214132;28;20273;-85
2022/06/13 14:20:02;;;;;;;1.38;0.98;;;;;;;28.44;39.53;97515.63;6222608;28;20236;-85
2022/06/13 14:23:07;;;;;;;0.80;0.80;;;;;;;28.83;39.23;97522.13;6190261;28;20566;-85
2022/06/13 14:26:31;;;;;;;2.83;1.23;;;;;;;29.52;37.44;97506.50;6191230;28;20366;-85
2022/06/13 14:29:42;;;;;;;1.83;1.45;;;;;;;34.88;28.76;97502.31;6204952;28;20264;-85
2022/06/13 14:32:46;;;;;;;1.00;0.90;;;;;;;38.13;25.46;97496.44;6214188;28;20503;-85
2022/06/13 14:35:58;;;;;;;1.27;1.02;;;;;;;39.43;22.39;97496.66;6212148;28;20224;-85
2022/06/13 14:39:03;;;;;;;2.00;0.93;;;;;;;40.12;21.96;97501.81;6173909;28;20248;-87
2022/06/13 14:42:22;;;;;;;1.77;0.98;;;;;;;41.04;20.63;97500.78;6207209;28;20232;-86
2022/06/13 14:45:45;;;;;;;2.80;1.10;;;;;;;41.59;19.92;97509.28;6209307;28;20640;-86
2022/06/13 14:48:58;;;;;;;1.63;0.88;;;;;;;41.84;18.63;97492.91;6197587;28;20219;-86
2022/06/13 14:52:18;;;;;;;2.50;0.90;;;;;;;41.93;18.34;97510.34;6212969;28;20688;-86
2022/06/13 14:55:20;;;;;;;1.25;0.90;;;;;;;41.88;18.40;97511.34;6213946;28;20715;-86
2022/06/13 14:58:45;;;;;;;1.33;0.80;;;;;;;42.34;18.32;97526.38;6186108;28;20807;-86
2022/06/13 15:02:15;;;;;;;1.75;1.00;;;;;;;42.23;17.08;97500.97;6165059;28;20250;-86
2022/06/13 15:05:17;;;;;;;1.10;1.00;;;;;;;42.19;16.91;97496.44;6217077;28;20240;-86
2022/06/13 15:08:49;;;;;;;1.50;0.75;;;;;;;42.14;18.44;97514.06;6224641;28;20307;-87
2022/06/13 15:11:54;;;;;;;1.85;0.90;;;;;;;41.06;19.14;97504.03;6229555;28;20698;-86
2022/06/13 15:15:10;;;;;;;1.85;0.90;;;;;;;40.46;17.64;97506.66;6238169;28;20671;-86
2022/06/13 15:18:21;;;;;;;2.45;1.00;;;;;;;41.11;17.82;97509.47;6236787;28;20275;-85
2022/06/13 15:21:26;;;;;;;2.95;0.88;;;;;;;41.12;17.85;97493.66;6237348;28;20250;-85
2022/06/13 15:24:52;;;;;;;0.80;0.80;;;;;;;41.40;18.37;97488.59;6222622;28;20311;-86
2022/06/13 15:27:57;;;;;;;2.30;1.02;;;;;;;41.01;17.79;97506.97;6229490;28;20251;-85
2022/06/13 15:31:07;;;;;;;1.38;0.90;;;;;;;41.15;17.59;97495.75;6216510;28;20244;-86
2022/06/13 15:34:11;;;;;;;1.73;0.90;;;;;;;42.19;16.81;97513.88;6238853;28;20715;-85
2022/06/13 15:37:13;;;;;;;0.77;0.77;;;;;;;42.34;17.57;97504.16;6236208;28;20373;-86
2022/06/13 15:40:26;;;;;;;2.72;1.00;;;;;;;42.76;17.64;97510.69;6236763;28;20230;-85
2022/06/13 15:43:59;;;;;;;1.85;0.85;;;;;;;42.07;17.94;97524.84;6236961;28;20242;-85
2022/06/13 15:47:07;;;;;;;2.20;0.80;;;;;;;40.74;18.13;97512.78;6178524;28;20700;-86
2022/06/13 15:50:17;;;;;;;1.52;0.98;;;;;;;41.76;17.93;97500.13;6177954;28;20237;-86
2022/06/13 15:53:31;;;;;;;1.10;0.95;;;;;;;42.06;17.15;97500.22;6178037;28;20967;-88
2022/06/13 15:56:35;;;;;;;1.95;1.00;;;;;;;42.04;18.15;97514.41;6163873;28;20236;-87
2022/06/13 15:59:53;;;;;;;2.20;0.80;;;;;;;41.77;17.58;97515.63;6178069;28;20449;-88
2022/06/13 16:02:56;;;;;;;1.02;0.90;;;;;;;41.35;17.71;97536.66;6161916;28;20302;-87
2022/06/13 16:06:03;;;;;;;2.47;0.85;;;;;;;34.85;25.13;97574.19;6162555;28;20702;-86
2022/06/13 16:09:07;;;;;;;3.08;1.20;;;;;;;28.87;32.96;97604.78;6177065;28;20654;-86
2022/06/13 16:12:12;;;;;;;2.42;1.10;;;;;;;26.28;37.31;97616.28;6160473;28;20244;-86
2022/06/13 16:15:18;;;;;;;4.28;1.52;;;;;;;25.24;40.21;97606.13;6161438;28;20345;-86
2022/06/13 16:18:38;;;;;;;1.25;1.10;;;;;;;24.35;41.24;97620.41;6177567;28;20304;-86
2022/06/13 16:21:40;;;;;;;3.22;1.15;;;;;;;23.86;42.22;97632.47;6161242;28;20585;-86
2022/06/13 16:24:45;;;;;;;2.95;1.15;;;;;;;24.10;42.43;97636.38;6231210;28;20223;-86
2022/06/13 16:27:49;;;;;;;1.75;0.93;;;;;;;24.43;42.66;97628.25;6221795;28;20239;-85
2022/06/13 16:30:53;;;;;;;2.72;1.10;;;;;;;24.27;41.62;97636.78;6235504;28;20234;-86
2022/06/13 16:33:58;;;;;;;1.95;1.20;;;;;;;24.06;42.03;97643.22;6251961;28;20219;-85
2022/06/13 16:37:04;;;;;;;2.83;1.00;;;;;;;24.07;42.29;97649.44;6235793;28;20222;-85
2022/06/13 16:40:32;;;;;;;0.80;0.80;;;;;;;23.86;42.42;97647.81;6235588;28;20695;-85
2022/06/13 16:43:34;;;;;;;1.65;1.30;;;;;;;23.63;43.74;97647.41;6235491;28;20254;-85
2022/06/13 16:46:52;;;;;;;2.88;1.10;;;;;;;23.46;43.95;97636.97;6235545;28;20599;-85